Dati Storici

Data ora Umidita' aria (%) Temperatura aria (°C) Rad globale (W/m²) Gonioanemometro (°) Tacoanemometro (m/s) Pioggia (mm)
22-06-2020 13:30 30.5 % 30.371 154.449 1.196 0 0
22-06-2020 13:20 31.7 % 29.8 111.62 0.787 0 0
22-06-2020 13:10 32.6 % 29.729 128.51 1.917 0 0
22-06-2020 13:00 32.1 % 29.603 134.784 1.967 0 0
22-06-2020 12:50 30.8 % 29.428 133.517 2.749 0 0
22-06-2020 12:40 32.2 % 29.689 151.492 3.265 0 0
22-06-2020 12:30 31.3 % 29.104 142.079 2.37 0 0
22-06-2020 12:20 31.2 % 29.685 94.578 3.02 0 0
22-06-2020 12:10 33 % 29.517 145.192 2.937 0 0
22-06-2020 12:00 35.4 % 30.061 124.442 1.949 0 0
22-06-2020 11:50 38.7 % 30.5 100.625 -0.006 0 0
22-06-2020 11:40 38.6 % 29.833 70.571 1.765 0 0
22-06-2020 11:30 44.7 % 29.144 109.83 0.723 0 0
22-06-2020 11:20 40.9 % 29.351 131.721 2.235 0 0
22-06-2020 11:10 41.9 % 29.181 72.769 0.492 0 0
22-06-2020 11:00 38 % 28.703 71.046 1.83 0 0
22-06-2020 10:50 39.2 % 29.834 125.797 1.732 0 0
22-06-2020 10:40 41.3 % 28.872 95.188 1.294 0 0
22-06-2020 10:30 41 % 29.542 52.202 1.21 0 0
22-06-2020 10:20 40 % 30.281 87.964 1.759 0 0

I dati sono presentati in modo automatico a scopo informativo. In seguito a verifica i dati possono subire modifiche o essere invalidati e non riportati negli archivi definitivi.